EGLC/LCY METAR and TAF weather

Enter ICAO airport designator
Station Type Date Time Source
EGLC METAR 2018/04/21 11:20 UTC NOAA

EGLC 211120Z AUTO 08011KT 9999 NCD 19/12 Q1021


Station Type Date Time Source
EGLC Decoded METAR 2018/04/21 11:20 UTC NOAA

London City Airport, United Kingdom (EGLC) 51-30N 000-30W
Apr 21, 2018 - 07:20 AM EDT / 2018.04.21 1120 UTC
Wind: from the E (080 degrees) at 13 MPH (11 KT):0
Visibility: greater than 7 mile(s):0
Temperature: 66 F (19 C)
Dew Point: 53 F (12 C)
Relative Humidity: 63%
Pressure (altimeter): 30.15 in. Hg (1021 hPa)
ob: EGLC 211120Z AUTO 08011KT 9999 NCD 19/12 Q1021
cycle: 11

Station Type Date Time Source
EGLC TAF 2016/03/02 12:00 UTC NOAA

TAF EGLC 021104Z 0212/0221 25015G25KT 9999 SCT020
TEMPO 0212/0216 25025G38KT 5000 SHRA BKN012CB PROB30
TEMPO 0212/0215 2500 +SHGS +SHRASN
TEMPO 0216/0221 29025G35KT
TEMPO 0219/0221 BKN012


Example: see airport list